Glennie, Michigan
Current Conditions -  °F | °C
As of 5:53 AM on Friday 24 Oct 2014 (Local Time) from KOSC Reporting Station
Overcast Overcast  
Wind Chill: 37°   Ceiling: 5000
Heat Index: 37°   Visibility: 7mi
Dew Point: 36°   Wind: 0mph
Humidity: 97%   Direction: NA
Pressure: 30.04"   Gusts: NA
Location:  44.56°N, 83.73°W
Report Text: KOSC 240953Z AUTO 00000KT 7SM BKN050 OVC110 02/02 A3004 RMK AO2 T00260021
Loading
Personal Weather Stations






























Interactive Weather Map
Tropical Storm Tracking
New forecast layout! Learn more

10-Day Weather Forecast

Advertisements
Track Severe Weather on mobile